This is the latest recevied weather packets stored in our database for station/object F5TND-3. If no packets are shown the sender has not sent any weather packets the latest 10 day(s).
| Time | Temp. | Humidity | Pressure | Rain* | Wind** | Luminosity | Snow |
|---|---|---|---|---|---|---|---|
| 1787993761 | 20° C | 84% | 1012.8 hPa | - | - | - | - |
| 1787992561 | 20.56° C | 88% | 1012.8 hPa | - | - | - | - |
| 1787991361 | 21.11° C | 78% | 1012.5 hPa | - | - | - | - |
| 1787990161 | 21.11° C | 80% | 1012.4 hPa | - | - | - | - |
| 1787988961 | 21.11° C | 84% | 1012.4 hPa | - | - | - | - |
| 1787987761 | 22.78° C | 77% | 1012.4 hPa | - | - | - | - |
| 1787986561 | 20.56° C | 93% | 1012.5 hPa | - | - | - | - |
| 1787985361 | 18.89° C | 100% | 1012.5 hPa | - | - | - | - |
| 1787984161 | 18.89° C | 100% | 1012.4 hPa | - | - | - | - |
| 1787982961 | 18.33° C | 100% | 1012.3 hPa | - | - | - | - |
| 1787981757 | 18.33° C | 100% | 1012.1 hPa | - | - | - | - |
| 1787979360 | 17.78° C | 100% | 1012.3 hPa | - | - | - | - |
| 1787978160 | 17.78° C | 100% | 1012.1 hPa | - | - | - | - |
| 1787976960 | 17.78° C | 100% | 1012.3 hPa | - | - | - | - |
| 1787975759 | 17.78° C | 100% | 1012.4 hPa | - | - | - | - |
| 1787974569 | 17.78° C | 100% | 1012.3 hPa | - | - | - | - |
| 1787973362 | 17.78° C | 100% | 1012.2 hPa | - | - | - | - |
| 1787972156 | 18.33° C | 100% | 1012.3 hPa | - | - | - | - |
| 1787970956 | 18.33° C | 100% | 1012.3 hPa | - | - | - | - |
| 1787969756 | 18.33° C | 100% | 1012.2 hPa | - | - | - | - |
| 1787968556 | 18.33° C | 100% | 1012 hPa | - | - | - | - |
| 1787967355 | 18.33° C | 100% | 1012 hPa | - | - | - | - |
| 1787966155 | 18.33° C | 100% | 1011.8 hPa | - | - | - | - |
| 1787964965 | 18.33° C | 100% | 1011.9 hPa | - | - | - | - |
| 1787963755 | 18.33° C | 100% | 1011.9 hPa | - | - | - | - |
* Rain since midnight (hover to see other rain measurements)
** Current wind speed in m/s (hover to see current wind gust speed)